Time,TemperatureF,DewpointF,PressureIn,WindDirection,WindDirectionDegrees,WindSpeedMPH,WindSpeedGustMPH,Humidity,HourlyPrecipIn,Conditions,Clouds,dailyrainin,SoftwareType,DateUTC
2013-03-17 00:00:00,53.3,40.6,29.75,East,84,12.0,12.0,62,0.00,,,0.00,VWS V14.01,2013-03-17 05:00:00,
2013-03-17 00:05:00,53.3,40.6,29.74,NNW,330,0.0,8.0,62,0.00,,,0.00,VWS V14.01,2013-03-17 05:05:00,
2013-03-17 00:10:00,53.2,40.5,29.73,NE,49,6.0,10.0,62,0.00,,,0.00,VWS V14.01,2013-03-17 05:10:00,
2013-03-17 00:15:00,53.2,40.5,29.73,East,89,7.5,12.0,62,0.00,,,0.00,VWS V14.01,2013-03-17 05:15:00,
2013-03-17 00:20:00,53.2,40.5,29.74,ENE,69,9.0,15.0,62,0.00,,,0.00,VWS V14.01,2013-03-17 05:20:00,
2013-03-17 00:25:00,53.2,40.5,29.74,ENE,71,10.5,15.0,62,0.00,,,0.00,VWS V14.01,2013-03-17 05:25:00,
2013-03-17 00:30:00,53.2,41.0,29.74,NE,46,4.5,15.0,63,0.00,,,0.00,VWS V14.01,2013-03-17 05:30:00,
2013-03-17 00:35:00,53.1,40.8,29.74,NNE,32,9.0,15.0,63,0.00,,,0.00,VWS V14.01,2013-03-17 05:35:00,
2013-03-17 00:40:00,53.1,40.8,29.74,NE,41,3.0,15.0,63,0.00,,,0.00,VWS V14.01,2013-03-17 05:40:00,
2013-03-17 00:45:00,52.9,40.7,29.74,ENE,68,6.0,15.0,63,0.00,,,0.00,VWS V14.01,2013-03-17 05:45:00,
2013-03-17 00:50:00,52.8,40.6,29.74,ENE,78,12.0,15.0,63,0.00,,,0.00,VWS V14.01,2013-03-17 05:50:00,
2013-03-17 00:55:00,52.5,40.7,29.74,East,80,13.5,15.0,64,0.00,,,0.00,VWS V14.01,2013-03-17 05:55:00,
2013-03-17 01:00:00,52.3,40.5,29.73,NE,49,3.0,15.0,64,0.00,,,0.00,VWS V14.01,2013-03-17 06:00:00,
2013-03-17 01:05:00,52.2,40.8,29.73,NE,44,4.5,15.0,65,0.00,,,0.00,VWS V14.01,2013-03-17 06:05:00,
2013-03-17 01:10:00,52.0,40.6,29.73,NNE,15,3.0,15.0,65,0.00,,,0.00,VWS V14.01,2013-03-17 06:10:00,
2013-03-17 01:15:00,51.9,40.5,29.73,NNE,31,3.0,15.0,65,0.00,,,0.00,VWS V14.01,2013-03-17 06:15:00,
2013-03-17 01:20:00,51.7,40.3,29.74,NNE,27,9.0,15.0,65,0.00,,,0.00,VWS V14.01,2013-03-17 06:20:00,
2013-03-17 01:25:00,51.5,40.1,29.74,NNE,18,1.5,15.0,65,0.00,,,0.00,VWS V14.01,2013-03-17 06:25:00,
2013-03-17 01:30:00,51.4,40.0,29.74,NE,37,9.0,15.0,65,0.00,,,0.00,VWS V14.01,2013-03-17 06:30:00,
2013-03-17 01:35:00,51.2,39.8,29.73,NE,53,12.0,15.0,65,0.00,,,0.00,VWS V14.01,2013-03-17 06:35:00,
2013-03-17 01:40:00,51.0,40.1,29.74,East,85,9.0,15.0,66,0.00,,,0.00,VWS V14.01,2013-03-17 06:40:00,
2013-03-17 01:45:00,50.9,40.0,29.73,ENE,63,6.0,15.0,66,0.00,,,0.00,VWS V14.01,2013-03-17 06:45:00,
2013-03-17 01:50:00,50.7,40.2,29.73,NE,39,9.0,15.0,67,0.00,,,0.00,VWS V14.01,2013-03-17 06:50:00,
2013-03-17 01:55:00,50.1,40.7,29.73,NNE,28,4.5,15.0,70,0.00,,,0.00,VWS V14.01,2013-03-17 06:55:00,
2013-03-17 02:00:00,49.7,40.7,29.73,NNE,26,10.5,10.5,71,0.00,,,0.00,VWS V14.01,2013-03-17 07:00:00,
2013-03-17 02:05:00,49.5,40.9,29.73,NE,51,7.5,8.0,72,0.00,,,0.00,VWS V14.01,2013-03-17 07:05:00,
2013-03-17 02:10:00,49.3,40.7,29.73,ENE,62,4.5,8.0,72,0.00,,,0.00,VWS V14.01,2013-03-17 07:10:00,
2013-03-17 02:15:00,49.1,40.8,29.73,NE,46,4.5,8.0,73,0.00,,,0.00,VWS V14.01,2013-03-17 07:15:00,
2013-03-17 02:20:00,48.8,40.5,29.73,NNE,31,10.5,11.0,73,0.00,,,0.00,VWS V14.01,2013-03-17 07:20:00,
2013-03-17 02:25:00,48.7,40.1,29.72,ENE,75,4.5,13.0,72,0.00,,,0.00,VWS V14.01,2013-03-17 07:25:00,
2013-03-17 02:30:00,48.5,41.0,29.73,NE,56,6.0,13.0,75,0.00,,,0.00,VWS V14.01,2013-03-17 07:30:00,
2013-03-17 02:35:00,48.1,40.9,29.73,North,10,4.5,13.0,76,0.01,,,0.01,VWS V14.01,2013-03-17 07:35:00,
2013-03-17 02:40:00,47.8,40.6,29.73,NE,39,4.5,13.0,76,0.01,,,0.01,VWS V14.01,2013-03-17 07:40:00,
2013-03-17 02:45:00,47.6,40.4,29.73,NNE,32,3.0,13.0,76,0.01,,,0.01,VWS V14.01,2013-03-17 07:45:00,
2013-03-17 02:50:00,47.5,40.3,29.73,East,80,6.0,13.0,76,0.01,,,0.01,VWS V14.01,2013-03-17 07:50:00,
2013-03-17 02:55:00,47.4,40.2,29.72,NE,56,9.0,13.0,76,0.01,,,0.01,VWS V14.01,2013-03-17 07:55:00,
2013-03-17 03:00:00,47.5,40.3,29.72,East,79,13.5,13.5,76,0.01,,,0.01,VWS V14.01,2013-03-17 08:00:00,
2013-03-17 03:05:00,47.4,39.9,29.72,NNW,335,7.5,13.0,75,0.01,,,0.01,VWS V14.01,2013-03-17 08:05:00,
2013-03-17 03:10:00,47.3,39.8,29.72,NE,46,10.5,13.0,75,0.01,,,0.01,VWS V14.01,2013-03-17 08:10:00,
2013-03-17 03:15:00,47.2,39.7,29.72,ENE,65,9.0,13.0,75,0.01,,,0.01,VWS V14.01,2013-03-17 08:15:00,
2013-03-17 03:20:00,47.1,39.6,29.72,East,82,12.0,13.0,75,0.01,,,0.01,VWS V14.01,2013-03-17 08:20:00,
2013-03-17 03:25:00,47.0,39.5,29.73,ENE,77,16.5,16.5,75,0.01,,,0.01,VWS V14.01,2013-03-17 08:25:00,
2013-03-17 03:30:00,46.9,39.7,29.73,NNE,18,12.0,13.0,76,0.01,,,0.01,VWS V14.01,2013-03-17 08:30:00,
2013-03-17 03:35:00,46.8,39.3,29.74,NNE,18,9.0,14.0,75,0.01,,,0.01,VWS V14.01,2013-03-17 08:35:00,
2013-03-17 03:40:00,46.8,39.7,29.73,ENE,68,7.5,14.0,76,0.01,,,0.01,VWS V14.01,2013-03-17 08:40:00,
2013-03-17 03:45:00,46.7,39.2,29.73,ENE,78,7.5,14.0,75,0.01,,,0.01,VWS V14.01,2013-03-17 08:45:00,
2013-03-17 03:50:00,46.5,39.0,29.73,NE,51,7.5,14.0,75,0.01,,,0.01,VWS V14.01,2013-03-17 08:50:00,
2013-03-17 03:55:00,46.5,39.0,29.74,NE,56,6.0,14.0,75,0.01,,,0.01,VWS V14.01,2013-03-17 08:55:00,
2013-03-17 04:00:00,46.5,39.0,29.74,NE,44,12.0,14.0,75,0.01,,,0.01,VWS V14.01,2013-03-17 09:00:00,
2013-03-17 04:05:00,46.4,38.9,29.74,North,9,7.5,12.0,75,0.00,,,0.01,VWS V14.01,2013-03-17 09:05:00,
2013-03-17 04:10:00,46.3,39.2,29.74,East,80,15.0,15.0,76,0.00,,,0.01,VWS V14.01,2013-03-17 09:10:00,
2013-03-17 04:15:00,46.3,39.2,29.73,NNE,30,4.5,12.0,76,0.00,,,0.01,VWS V14.01,2013-03-17 09:15:00,
2013-03-17 04:20:00,46.1,38.6,29.72,ENE,73,9.0,13.0,75,0.00,,,0.01,VWS V14.01,2013-03-17 09:20:00,
2013-03-17 04:25:00,46.0,38.9,29.72,East,96,9.0,13.0,76,0.00,,,0.01,VWS V14.01,2013-03-17 09:25:00,
2013-03-17 04:30:00,45.8,38.3,29.72,NE,52,7.5,13.0,75,0.00,,,0.01,VWS V14.01,2013-03-17 09:30:00,
2013-03-17 04:35:00,45.7,38.6,29.72,East,86,7.5,13.0,76,0.00,,,0.01,VWS V14.01,2013-03-17 09:35:00,
2013-03-17 04:40:00,45.5,38.4,29.72,East,81,12.0,13.0,76,0.00,,,0.01,VWS V14.01,2013-03-17 09:40:00,
2013-03-17 04:45:00,45.4,38.3,29.72,ENE,77,10.5,13.0,76,0.00,,,0.01,VWS V14.01,2013-03-17 09:45:00,
2013-03-17 04:50:00,45.3,38.2,29.72,ENE,74,12.0,13.0,76,0.00,,,0.01,VWS V14.01,2013-03-17 09:50:00,
2013-03-17 04:55:00,45.4,38.6,29.71,East,94,4.5,13.0,77,0.00,,,0.01,VWS V14.01,2013-03-17 09:55:00,
2013-03-17 05:00:00,45.4,38.6,29.71,ENE,65,15.0,15.0,77,0.00,,,0.01,VWS V14.01,2013-03-17 10:00:00,
2013-03-17 05:05:00,45.5,38.4,29.71,East,82,12.0,14.0,76,0.00,,,0.01,VWS V14.01,2013-03-17 10:05:00,
2013-03-17 05:10:00,45.5,38.0,29.71,East,79,12.0,17.0,75,0.00,,,0.01,VWS V14.01,2013-03-17 10:10:00,
2013-03-17 05:15:00,45.5,38.4,29.71,NNW,328,7.5,17.0,76,0.00,,,0.01,VWS V14.01,2013-03-17 10:15:00,
2013-03-17 05:20:00,45.4,38.3,29.72,NNE,14,7.5,17.0,76,0.00,,,0.01,VWS V14.01,2013-03-17 10:20:00,
2013-03-17 05:25:00,45.4,38.3,29.72,ENE,70,10.5,17.0,76,0.00,,,0.01,VWS V14.01,2013-03-17 10:25:00,
2013-03-17 05:30:00,45.3,38.2,29.72,ENE,73,10.5,17.0,76,0.00,,,0.01,VWS V14.01,2013-03-17 10:30:00,
2013-03-17 05:35:00,45.2,38.1,29.73,ENE,73,19.5,19.5,76,0.00,,,0.01,VWS V14.01,2013-03-17 10:35:00,
2013-03-17 05:40:00,45.1,38.0,29.73,ENE,70,7.5,17.0,76,0.00,,,0.01,VWS V14.01,2013-03-17 10:40:00,
2013-03-17 05:45:00,45.1,38.0,29.74,NE,51,4.5,17.0,76,0.00,,,0.01,VWS V14.01,2013-03-17 10:45:00,
2013-03-17 05:50:00,45.0,37.9,29.74,NE,43,4.5,17.0,76,0.00,,,0.01,VWS V14.01,2013-03-17 10:50:00,
2013-03-17 05:55:00,45.0,38.2,29.75,NE,38,16.5,17.0,77,0.00,,,0.01,VWS V14.01,2013-03-17 10:55:00,
2013-03-17 06:00:00,45.0,38.2,29.75,NNE,20,15.0,17.0,77,0.00,,,0.01,VWS V14.01,2013-03-17 11:00:00,
2013-03-17 06:05:00,45.0,38.2,29.75,North,359,6.0,11.0,77,0.00,,,0.01,VWS V14.01,2013-03-17 11:05:00,
2013-03-17 06:10:00,44.9,38.1,29.75,North,9,7.5,12.0,77,0.00,,,0.01,VWS V14.01,2013-03-17 11:10:00,
2013-03-17 06:15:00,44.9,38.1,29.76,NE,35,15.0,16.0,77,0.00,,,0.01,VWS V14.01,2013-03-17 11:15:00,
2013-03-17 06:20:00,44.8,38.0,29.77,NE,39,18.0,18.0,77,0.00,,,0.01,VWS V14.01,2013-03-17 11:20:00,
2013-03-17 06:25:00,44.8,38.4,29.78,NNW,345,10.5,16.0,78,0.00,,,0.01,VWS V14.01,2013-03-17 11:25:00,
2013-03-17 06:30:00,44.7,38.3,29.77,ENE,63,10.5,16.0,78,0.00,,,0.01,VWS V14.01,2013-03-17 11:30:00,
2013-03-17 06:35:00,44.5,38.4,29.77,ENE,65,7.5,16.0,79,0.00,,,0.01,VWS V14.01,2013-03-17 11:35:00,
2013-03-17 06:40:00,44.5,38.4,29.77,North,10,4.5,16.0,79,0.00,,,0.01,VWS V14.01,2013-03-17 11:40:00,
2013-03-17 06:45:00,44.3,38.5,29.77,ENE,77,7.5,16.0,80,0.00,,,0.01,VWS V14.01,2013-03-17 11:45:00,
2013-03-17 06:50:00,44.0,38.9,29.77,East,91,9.0,16.0,82,0.00,,,0.01,VWS V14.01,2013-03-17 11:50:00,
2013-03-17 06:55:00,43.7,38.9,29.78,NE,34,9.0,16.0,83,0.00,,,0.01,VWS V14.01,2013-03-17 11:55:00,
2013-03-17 07:00:00,43.4,39.2,29.78,NNE,27,6.0,16.0,85,0.00,,,0.01,VWS V14.01,2013-03-17 12:00:00,
2013-03-17 07:05:00,43.1,39.2,29.78,NNE,30,4.5,16.0,86,0.00,,,0.01,VWS V14.01,2013-03-17 12:05:00,
2013-03-17 07:10:00,42.9,39.3,29.78,ENE,65,9.0,16.0,87,0.00,,,0.01,VWS V14.01,2013-03-17 12:10:00,
2013-03-17 07:15:00,42.7,39.4,29.79,NNE,26,4.5,16.0,88,0.00,,,0.01,VWS V14.01,2013-03-17 12:15:00,
2013-03-17 07:20:00,42.5,39.5,29.79,ENE,77,7.5,16.0,89,0.00,,,0.01,VWS V14.01,2013-03-17 12:20:00,
2013-03-17 07:25:00,42.4,39.7,29.79,NNE,27,4.5,16.0,90,0.01,,,0.02,VWS V14.01,2013-03-17 12:25:00,
2013-03-17 07:30:00,42.4,39.7,29.79,NNE,14,4.5,16.0,90,0.01,,,0.02,VWS V14.01,2013-03-17 12:30:00,
2013-03-17 07:35:00,42.3,39.6,29.79,ENE,77,13.5,16.0,90,0.01,,,0.02,VWS V14.01,2013-03-17 12:35:00,
2013-03-17 07:40:00,42.2,39.8,29.79,ENE,70,10.5,16.0,91,0.01,,,0.02,VWS V14.01,2013-03-17 12:40:00,
2013-03-17 07:45:00,42.1,39.7,29.79,ENE,57,1.5,16.0,91,0.01,,,0.02,VWS V14.01,2013-03-17 12:45:00,
2013-03-17 07:50:00,42.0,39.6,29.79,ENE,77,10.5,16.0,91,0.01,,,0.02,VWS V14.01,2013-03-17 12:50:00,
2013-03-17 07:55:00,41.9,39.8,29.79,ENE,75,12.0,16.0,92,0.01,,,0.02,VWS V14.01,2013-03-17 12:55:00,
2013-03-17 08:00:00,41.9,39.8,29.78,ENE,68,7.5,16.0,92,0.01,,,0.02,VWS V14.01,2013-03-17 13:00:00,
2013-03-17 08:05:00,41.9,39.8,29.78,NE,56,3.0,10.0,92,0.00,,,0.02,VWS V14.01,2013-03-17 13:05:00,
2013-03-17 08:10:00,41.8,39.7,29.78,NNE,22,4.5,10.0,92,0.00,,,0.02,VWS V14.01,2013-03-17 13:10:00,
2013-03-17 08:14:00,41.8,39.7,29.78,ENE,70,7.5,15.0,92,0.01,,,0.03,VWS V14.01,2013-03-17 13:14:00,
2013-03-17 08:19:00,41.7,39.3,29.78,East,87,15.0,20.0,91,0.01,,,0.03,VWS V14.01,2013-03-17 13:19:00,
2013-03-17 08:24:00,41.7,39.5,29.78,East,79,7.5,20.0,92,0.01,,,0.03,VWS V14.01,2013-03-17 13:24:00,
2013-03-17 08:29:00,41.6,39.5,29.78,ENE,64,12.0,20.0,92,0.01,,,0.03,VWS V14.01,2013-03-17 13:29:00,
2013-03-17 08:34:00,41.7,39.5,29.78,ENE,63,9.0,20.0,92,0.01,,,0.03,VWS V14.01,2013-03-17 13:34:00,
2013-03-17 08:39:00,41.7,39.3,29.78,NE,48,7.5,20.0,91,0.01,,,0.03,VWS V14.01,2013-03-17 13:39:00,
2013-03-17 08:44:00,41.6,39.2,29.78,ENE,68,15.0,20.0,91,0.01,,,0.03,VWS V14.01,2013-03-17 13:44:00,
2013-03-17 08:49:00,41.6,39.2,29.78,East,84,7.5,20.0,91,0.01,,,0.03,VWS V14.01,2013-03-17 13:49:00,
2013-03-17 08:54:00,41.5,39.3,29.78,East,96,7.5,20.0,92,0.01,,,0.03,VWS V14.01,2013-03-17 13:54:00,
2013-03-17 08:59:00,41.6,39.5,29.78,East,79,24.0,24.0,92,0.01,,,0.03,VWS V14.01,2013-03-17 13:59:00,
2013-03-17 09:00:00,41.9,39.8,29.79,ENE,68,12.0,16.0,92,0.01,,,0.02,VWS V15.00,2013-03-17 14:00:00,
2013-03-17 09:04:00,41.7,39.5,29.78,ENE,73,7.5,20.0,92,0.01,,,0.03,VWS V14.01,2013-03-17 14:04:00,
2013-03-17 09:09:00,41.7,39.3,29.78,East,89,9.0,22.0,91,0.01,,,0.03,VWS V14.01,2013-03-17 14:09:00,
2013-03-17 09:14:00,41.8,39.4,29.78,SSW,193,3.0,22.0,91,0.01,,,0.03,VWS V14.01,2013-03-17 14:14:00,
2013-03-17 09:19:00,41.8,39.4,29.78,East,91,12.0,22.0,91,0.01,,,0.03,VWS V14.01,2013-03-17 14:19:00,
2013-03-17 09:24:00,41.7,39.0,29.78,East,81,9.0,22.0,90,0.01,,,0.03,VWS V14.01,2013-03-17 14:24:00,
2013-03-17 09:29:00,41.8,39.1,29.78,ENE,65,9.0,22.0,90,0.01,,,0.03,VWS V14.01,2013-03-17 14:29:00,
2013-03-17 09:34:00,41.8,39.4,29.78,ENE,70,9.0,22.0,91,0.01,,,0.03,VWS V14.01,2013-03-17 14:34:00,
2013-03-17 09:39:00,41.8,39.4,29.78,NE,55,9.0,22.0,91,0.01,,,0.03,VWS V14.01,2013-03-17 14:39:00,
2013-03-17 09:44:00,41.7,39.3,29.78,ENE,75,16.5,22.0,91,0.01,,,0.03,VWS V14.01,2013-03-17 14:44:00,
2013-03-17 09:49:00,41.7,39.3,29.78,ENE,75,18.0,22.0,91,0.01,,,0.03,VWS V14.01,2013-03-17 14:49:00,
2013-03-17 09:54:00,41.7,39.3,29.77,NE,41,4.5,22.0,91,0.01,,,0.03,VWS V14.01,2013-03-17 14:54:00,
2013-03-17 09:59:00,41.7,39.5,29.77,South,190,7.5,22.0,92,0.01,,,0.03,VWS V14.01,2013-03-17 14:59:00,
2013-03-17 10:00:00,41.7,39.5,29.78,ESE,122,9.0,22.0,92,0.01,,,0.03,VWS V14.01,2013-03-17 15:00:00,
2013-03-17 10:04:00,41.7,39.3,29.78,ENE,72,13.5,13.5,91,0.00,,,0.03,VWS V14.01,2013-03-17 15:04:00,
2013-03-17 10:09:00,41.7,39.5,29.77,NE,47,10.5,14.0,92,0.00,,,0.03,VWS V14.01,2013-03-17 15:09:00,
2013-03-17 10:14:00,41.6,39.2,29.77,East,101,12.0,18.0,91,0.01,,,0.04,VWS V14.01,2013-03-17 15:14:00,
2013-03-17 10:19:00,41.7,39.3,29.77,ENE,78,18.0,18.0,91,0.01,,,0.04,VWS V14.01,2013-03-17 15:19:00,
2013-03-17 10:24:00,41.7,39.3,29.77,East,95,13.5,18.0,91,0.01,,,0.04,VWS V14.01,2013-03-17 15:24:00,
2013-03-17 10:29:00,41.7,39.3,29.77,ESE,115,3.0,18.0,91,0.01,,,0.04,VWS V14.01,2013-03-17 15:29:00,
2013-03-17 10:34:00,41.8,39.7,29.77,ENE,73,10.5,18.0,92,0.01,,,0.04,VWS V14.01,2013-03-17 15:34:00,
2013-03-17 10:39:00,41.8,39.4,29.77,ENE,72,4.5,18.0,91,0.01,,,0.04,VWS V14.01,2013-03-17 15:39:00,
2013-03-17 10:44:00,41.7,39.3,29.77,ENE,69,7.5,18.0,91,0.01,,,0.04,VWS V14.01,2013-03-17 15:44:00,
2013-03-17 10:49:00,41.7,39.3,29.76,East,81,15.0,18.0,91,0.01,,,0.04,VWS V14.01,2013-03-17 15:49:00,
2013-03-17 10:54:00,41.6,39.2,29.76,East,82,15.0,18.0,91,0.01,,,0.04,VWS V14.01,2013-03-17 15:54:00,
2013-03-17 10:59:00,41.5,38.8,29.75,ENE,78,4.5,19.0,90,0.01,,,0.04,VWS V14.01,2013-03-17 15:59:00,
2013-03-17 11:00:00,41.7,39.5,29.78,ESE,122,9.0,22.0,92,0.01,,,0.03,VWS V15.00,2013-03-17 16:00:00,
2013-03-17 11:04:00,41.5,39.1,29.75,East,91,9.0,19.0,91,0.01,,,0.04,VWS V14.01,2013-03-17 16:04:00,
2013-03-17 11:09:00,41.4,39.0,29.76,NW,311,1.5,19.0,91,0.01,,,0.04,VWS V14.01,2013-03-17 16:09:00,
2013-03-17 11:14:00,41.5,39.3,29.76,East,86,9.0,19.0,92,0.01,,,0.04,VWS V14.01,2013-03-17 16:14:00,
2013-03-17 11:19:00,41.4,39.0,29.76,East,96,6.0,19.0,91,0.01,,,0.04,VWS V14.01,2013-03-17 16:19:00,
2013-03-17 11:24:00,41.4,39.0,29.75,East,94,6.0,19.0,91,0.01,,,0.04,VWS V14.01,2013-03-17 16:24:00,
2013-03-17 11:30:00,41.4,39.2,29.76,ENE,77,9.0,19.0,92,0.01,,,0.04,VWS V14.01,2013-03-17 16:30:00,
2013-03-17 11:35:00,41.4,39.2,29.76,ENE,78,15.0,19.0,92,0.01,,,0.04,VWS V14.01,2013-03-17 16:35:00,
2013-03-17 11:40:00,41.4,39.2,29.76,NE,55,0.0,19.0,92,0.01,,,0.04,VWS V14.01,2013-03-17 16:40:00,
2013-03-17 11:45:00,41.5,39.3,29.75,NE,45,10.5,19.0,92,0.01,,,0.04,VWS V14.01,2013-03-17 16:45:00,
2013-03-17 11:50:00,41.5,39.3,29.75,East,87,9.0,19.0,92,0.02,,,0.05,VWS V14.01,2013-03-17 16:50:00,
2013-03-17 11:55:00,41.5,39.3,29.74,ESE,117,4.5,19.0,92,0.02,,,0.05,VWS V14.01,2013-03-17 16:55:00,
2013-03-17 12:00:00,41.7,39.8,29.74,East,87,3.0,3.0,93,0.00,,,0.05,VWS V14.01,2013-03-17 17:00:00,
2013-03-17 12:05:00,41.8,39.9,29.74,East,93,12.0,12.0,93,0.00,,,0.05,VWS V14.01,2013-03-17 17:05:00,
2013-03-17 12:10:00,41.9,39.8,29.73,SSW,200,1.5,10.0,92,0.00,,,0.05,VWS V14.01,2013-03-17 17:10:00,
2013-03-17 12:15:00,42.0,39.8,29.73,East,94,6.0,12.0,92,0.00,,,0.05,VWS V14.01,2013-03-17 17:15:00,
2013-03-17 12:20:00,42.1,40.2,29.73,East,88,1.5,13.0,93,0.00,,,0.05,VWS V14.01,2013-03-17 17:20:00,
2013-03-17 12:25:00,42.3,40.4,29.73,East,79,9.0,13.0,93,0.00,,,0.05,VWS V14.01,2013-03-17 17:25:00,
2013-03-17 12:30:00,42.4,40.5,29.73,SW,236,3.0,13.0,93,0.00,,,0.05,VWS V14.01,2013-03-17 17:30:00,
2013-03-17 12:35:00,42.6,40.7,29.72,East,85,9.0,13.0,93,0.00,,,0.05,VWS V14.01,2013-03-17 17:35:00,
2013-03-17 12:40:00,42.7,40.8,29.72,East,91,4.5,13.0,93,0.00,,,0.05,VWS V14.01,2013-03-17 17:40:00,
2013-03-17 12:45:00,42.9,40.7,29.71,ENE,61,3.0,16.0,92,0.00,,,0.05,VWS V14.01,2013-03-17 17:45:00,
2013-03-17 12:50:00,43.1,40.9,29.71,NE,48,7.5,16.0,92,0.00,,,0.05,VWS V14.01,2013-03-17 17:50:00,
2013-03-17 12:55:00,43.2,41.0,29.71,ENE,78,4.5,16.0,92,0.00,,,0.05,VWS V14.01,2013-03-17 17:55:00,
2013-03-17 13:00:00,43.3,40.8,29.71,East,87,3.0,16.0,91,0.00,,,0.05,VWS V14.01,2013-03-17 18:00:00,
2013-03-17 13:05:00,43.3,40.8,29.71,East,98,7.5,16.0,91,0.00,,,0.05,VWS V14.01,2013-03-17 18:05:00,
2013-03-17 13:10:00,43.4,41.2,29.70,South,174,6.0,16.0,92,0.00,,,0.05,VWS V14.01,2013-03-17 18:10:00,
2013-03-17 13:15:00,43.6,41.2,29.70,SW,215,1.5,16.0,91,0.00,,,0.05,VWS V14.01,2013-03-17 18:15:00,
2013-03-17 13:20:00,43.7,41.2,29.70,East,97,7.5,16.0,91,0.00,,,0.05,VWS V14.01,2013-03-17 18:20:00,
2013-03-17 13:25:00,43.8,41.3,29.70,North,357,1.5,16.0,91,0.00,,,0.05,VWS V14.01,2013-03-17 18:25:00,
2013-03-17 13:30:00,43.9,41.7,29.70,NE,36,3.0,16.0,92,0.00,,,0.05,VWS V14.01,2013-03-17 18:30:00,
2013-03-17 13:35:00,44.1,41.7,29.69,East,87,10.5,16.0,91,0.00,,,0.05,VWS V14.01,2013-03-17 18:35:00,
2013-03-17 13:40:00,44.3,41.8,29.69,WNW,291,1.5,16.0,91,0.00,,,0.05,VWS V14.01,2013-03-17 18:40:00,
2013-03-17 13:45:00,44.3,41.8,29.68,ENE,77,3.0,16.0,91,0.00,,,0.05,VWS V14.01,2013-03-17 18:45:00,
2013-03-17 13:50:00,44.4,41.9,29.68,East,94,7.5,16.0,91,0.00,,,0.05,VWS V14.01,2013-03-17 18:50:00,
2013-03-17 13:54:00,44.3,41.8,29.68,ENE,68,7.5,16.0,91,0.00,,,0.05,VWS V14.01,2013-03-17 18:54:00,
2013-03-17 13:59:00,44.4,42.2,29.67,SSE,150,1.5,16.0,92,0.00,,,0.05,VWS V14.01,2013-03-17 18:59:00,
2013-03-17 14:00:00,44.4,42.2,29.67,NE,50,1.5,16.0,92,0.00,,,0.05,VWS V14.01,2013-03-17 19:00:00,
2013-03-17 14:12:00,44.6,42.4,29.67,ENE,70,3.0,3.0,92,0.00,,,0.05,VWS V14.01,2013-03-17 19:12:00,
2013-03-17 14:17:00,44.6,42.1,29.66,SSE,167,4.5,11.0,91,0.00,,,0.05,VWS V14.01,2013-03-17 19:17:00,
2013-03-17 14:22:00,44.6,42.4,29.66,ENE,75,4.5,11.0,92,0.00,,,0.05,VWS V14.01,2013-03-17 19:22:00,
2013-03-17 14:27:00,44.6,42.4,29.66,East,101,7.5,11.0,92,0.00,,,0.05,VWS V14.01,2013-03-17 19:27:00,
2013-03-17 14:32:00,44.6,42.4,29.66,East,84,7.5,12.0,92,0.00,,,0.05,VWS V14.01,2013-03-17 19:32:00,
2013-03-17 14:37:00,44.8,42.6,29.65,East,82,4.5,12.0,92,0.00,,,0.05,VWS V14.01,2013-03-17 19:37:00,
2013-03-17 14:42:00,45.1,43.2,29.65,ENE,67,13.5,13.5,93,0.00,,,0.05,VWS V14.01,2013-03-17 19:42:00,
2013-03-17 14:47:00,45.3,43.1,29.65,ESE,108,4.5,12.0,92,0.00,,,0.05,VWS V14.01,2013-03-17 19:47:00,
2013-03-17 14:52:00,45.6,43.4,29.64,East,79,4.5,12.0,92,0.00,,,0.05,VWS V14.01,2013-03-17 19:52:00,
2013-03-17 14:57:00,45.6,43.1,29.64,East,79,9.0,13.0,91,0.00,,,0.05,VWS V14.01,2013-03-17 19:57:00,
2013-03-17 15:00:00,44.4,42.2,29.67,NE,50,1.5,16.0,92,0.00,,,0.05,VWS V15.00,2013-03-17 20:00:00,
2013-03-17 15:02:00,45.6,43.1,29.64,ENE,74,4.5,13.0,91,0.00,,,0.05,VWS V14.01,2013-03-17 20:02:00,
2013-03-17 15:07:00,45.8,43.6,29.64,East,101,1.5,13.0,92,0.00,,,0.05,VWS V14.01,2013-03-17 20:07:00,
2013-03-17 15:12:00,45.9,43.4,29.63,ESE,103,0.0,13.0,91,0.00,,,0.05,VWS V14.01,2013-03-17 20:12:00,
2013-03-17 15:17:00,46.1,43.6,29.64,NE,47,0.0,13.0,91,0.00,,,0.05,VWS V14.01,2013-03-17 20:17:00,
2013-03-17 15:22:00,46.2,43.7,29.64,ENE,64,3.0,13.0,91,0.00,,,0.05,VWS V14.01,2013-03-17 20:22:00,
2013-03-17 15:27:00,46.2,43.7,29.64,East,81,0.0,13.0,91,0.00,,,0.05,VWS V14.01,2013-03-17 20:27:00,
2013-03-17 15:32:00,46.2,43.7,29.63,ENE,78,12.0,13.0,91,0.00,,,0.05,VWS V14.01,2013-03-17 20:32:00,
2013-03-17 15:37:00,46.3,44.1,29.63,NE,51,4.5,13.0,92,0.00,,,0.05,VWS V14.01,2013-03-17 20:37:00,
2013-03-17 15:42:00,46.4,44.2,29.63,NE,45,3.0,13.0,92,0.02,,,0.07,VWS V14.01,2013-03-17 20:42:00,
2013-03-17 15:47:00,46.5,44.6,29.62,NE,47,1.5,13.0,93,0.02,,,0.07,VWS V14.01,2013-03-17 20:47:00,
2013-03-17 15:53:00,46.5,44.6,29.62,East,84,3.0,13.0,93,0.02,,,0.07,VWS V14.01,2013-03-17 20:53:00,
2013-03-17 15:58:00,46.4,44.2,29.72,East,90,4.5,13.0,92,0.02,,,0.07,VWS V14.01,2013-03-17 20:58:00,
2013-03-17 16:00:00,46.4,44.2,29.72,ENE,57,3.0,13.0,92,0.02,,,0.07,VWS V14.01,2013-03-17 21:00:00,
2013-03-17 16:03:00,46.4,44.5,29.72,ENE,74,6.0,7.0,93,0.00,,,0.07,VWS V14.01,2013-03-17 21:03:00,
2013-03-17 16:07:00,46.5,44.6,29.71,East,91,4.5,7.0,93,0.00,,,0.07,VWS V14.01,2013-03-17 21:07:00,
2013-03-17 16:12:00,46.6,44.7,29.71,East,82,3.0,7.0,93,0.00,,,0.07,VWS V14.01,2013-03-17 21:12:00,
2013-03-17 16:17:00,46.5,44.6,29.71,East,81,1.5,7.0,93,0.01,,,0.08,VWS V14.01,2013-03-17 21:17:00,
2013-03-17 16:23:00,46.6,45.0,29.70,SSE,152,0.0,0.0,94,0.01,,,0.08,VWS V14.01,2013-03-17 21:23:00,
2013-03-17 16:34:00,46.9,45.3,29.70,East,91,0.0,0.0,94,0.01,,,0.08,VWS V14.01,2013-03-17 21:34:00,
2013-03-17 16:40:00,46.9,45.0,29.71,NE,38,0.0,0.0,93,0.01,,,0.08,VWS V14.01,2013-03-17 21:40:00,
2013-03-17 16:45:00,47.0,45.1,29.71,North,9,0.0,0.0,93,0.01,,,0.08,VWS V14.01,2013-03-17 21:45:00,
2013-03-17 16:53:00,46.9,45.0,29.71,NE,35,0.0,0.0,93,0.01,,,0.08,VWS V14.01,2013-03-17 21:53:00,
2013-03-17 16:58:00,46.9,45.0,29.70,North,354,4.5,4.5,93,0.01,,,0.08,VWS V14.01,2013-03-17 21:58:00,
2013-03-17 17:00:00,46.4,44.2,29.72,ENE,57,3.0,13.0,92,0.02,,,0.07,VWS V15.00,2013-03-17 22:00:00,
2013-03-17 17:03:00,46.7,44.8,29.70,ENE,65,3.0,3.0,93,0.01,,,0.08,VWS V14.01,2013-03-17 22:03:00,
2013-03-17 17:08:00,46.7,45.1,29.70,NNE,15,6.0,6.0,94,0.01,,,0.08,VWS V14.01,2013-03-17 22:08:00,
2013-03-17 17:13:00,46.6,45.0,29.70,North,359,1.5,4.0,94,0.01,,,0.08,VWS V14.01,2013-03-17 22:13:00,
2013-03-17 17:18:00,46.6,45.0,29.70,North,354,3.0,4.0,94,0.01,,,0.08,VWS V14.01,2013-03-17 22:18:00,
2013-03-17 17:23:00,46.5,44.9,29.70,North,6,1.5,4.0,94,0.01,,,0.08,VWS V14.01,2013-03-17 22:23:00,
2013-03-17 17:28:00,46.4,44.8,29.70,NE,46,3.0,4.0,94,0.01,,,0.08,VWS V14.01,2013-03-17 22:28:00,
2013-03-17 17:33:00,46.4,45.0,29.70,East,83,0.0,4.0,95,0.01,,,0.08,VWS V14.01,2013-03-17 22:33:00,
2013-03-17 17:38:00,46.3,45.0,29.70,NE,41,3.0,4.0,95,0.01,,,0.08,VWS V14.01,2013-03-17 22:38:00,
2013-03-17 17:43:00,46.3,45.0,29.70,NE,41,4.5,4.5,95,0.01,,,0.08,VWS V14.01,2013-03-17 22:43:00,
2013-03-17 17:48:00,46.3,45.0,29.70,NW,320,1.5,4.0,95,0.01,,,0.08,VWS V14.01,2013-03-17 22:48:00,
2013-03-17 17:53:00,46.3,45.0,29.70,NNE,28,4.5,5.0,95,0.01,,,0.08,VWS V14.01,2013-03-17 22:53:00,
2013-03-17 17:58:00,46.2,44.8,29.70,NNE,16,3.0,5.0,95,0.01,,,0.08,VWS V14.01,2013-03-17 22:58:00,
2013-03-17 18:00:00,46.2,44.8,29.70,North,9,4.5,5.0,95,0.01,,,0.08,VWS V14.01,2013-03-17 23:00:00,
2013-03-17 18:03:00,46.1,44.8,29.70,NNW,340,4.5,4.5,95,0.00,,,0.08,VWS V14.01,2013-03-17 23:03:00,
2013-03-17 18:08:00,46.0,44.4,29.71,NNE,13,6.0,6.0,94,0.00,,,0.08,VWS V14.01,2013-03-17 23:08:00,
2013-03-17 18:13:00,45.8,44.2,29.71,NE,34,6.0,6.0,94,0.00,,,0.08,VWS V14.01,2013-03-17 23:13:00,
2013-03-17 18:18:00,45.7,44.1,29.71,NNE,23,3.0,5.0,94,0.00,,,0.08,VWS V14.01,2013-03-17 23:18:00,
2013-03-17 18:23:00,45.7,44.3,29.72,NW,311,1.5,5.0,95,0.00,,,0.08,VWS V14.01,2013-03-17 23:23:00,
2013-03-17 18:28:00,45.5,43.9,29.71,NE,47,6.0,6.0,94,0.00,,,0.08,VWS V14.01,2013-03-17 23:28:00,
2013-03-17 18:33:00,45.3,43.7,29.71,NNE,18,1.5,5.0,94,0.00,,,0.08,VWS V14.01,2013-03-17 23:33:00,
2013-03-17 18:38:00,45.2,43.9,29.71,NE,49,0.0,5.0,95,0.00,,,0.08,VWS V14.01,2013-03-17 23:38:00,
2013-03-17 18:43:00,45.0,43.4,29.71,NNE,18,1.5,5.0,94,0.00,,,0.08,VWS V14.01,2013-03-17 23:43:00,
2013-03-17 18:48:00,44.8,43.2,29.71,NE,37,3.0,6.0,94,0.00,,,0.08,VWS V14.01,2013-03-17 23:48:00,
2013-03-17 18:53:00,44.7,43.1,29.72,North,9,1.5,6.0,94,0.00,,,0.08,VWS V14.01,2013-03-17 23:53:00,
2013-03-17 18:58:00,44.6,43.0,29.72,NE,55,3.0,6.0,94,0.00,,,0.08,VWS V14.01,2013-03-17 23:58:00,
2013-03-17 19:00:00,46.2,44.8,29.70,North,9,4.5,5.0,95,0.01,,,0.08,VWS V15.00,2013-03-18 00:00:00,
2013-03-17 19:03:00,44.6,43.3,29.72,ENE,74,3.0,6.0,95,0.00,,,0.08,VWS V14.01,2013-03-18 00:03:00,
2013-03-17 19:08:00,44.6,43.3,29.72,ENE,70,1.5,6.0,95,0.00,,,0.08,VWS V14.01,2013-03-18 00:08:00,
2013-03-17 19:13:00,44.5,43.2,29.72,ENE,73,3.0,6.0,95,0.00,,,0.08,VWS V14.01,2013-03-18 00:13:00,
2013-03-17 19:18:00,44.5,43.2,29.72,ENE,75,3.0,6.0,95,0.00,,,0.08,VWS V14.01,2013-03-18 00:18:00,
2013-03-17 19:23:00,44.6,43.3,29.72,ENE,77,1.5,1.5,95,0.00,,,0.08,VWS V14.01,2013-03-18 00:23:00,
2013-03-17 19:28:00,44.6,43.3,29.72,NNE,31,1.5,3.0,95,0.00,,,0.08,VWS V14.01,2013-03-18 00:28:00,
2013-03-17 19:33:00,44.6,43.3,29.73,North,356,0.0,3.0,95,0.00,,,0.08,VWS V14.01,2013-03-18 00:33:00,
2013-03-17 19:38:00,44.6,43.3,29.73,NNW,347,1.5,3.0,95,0.00,,,0.08,VWS V14.01,2013-03-18 00:38:00,
2013-03-17 19:43:00,44.5,43.2,29.73,NNE,22,1.5,3.0,95,0.00,,,0.08,VWS V14.01,2013-03-18 00:43:00,
2013-03-17 19:48:00,44.5,43.2,29.73,NE,47,1.5,3.0,95,0.00,,,0.08,VWS V14.01,2013-03-18 00:48:00,
2013-03-17 19:53:00,44.5,43.2,29.72,North,8,1.5,3.0,95,0.00,,,0.08,VWS V14.01,2013-03-18 00:53:00,
2013-03-17 19:58:00,44.5,43.4,29.72,NE,53,1.5,3.0,96,0.00,,,0.08,VWS V14.01,2013-03-18 00:58:00,
2013-03-17 20:00:00,44.5,43.4,29.72,NNE,22,3.0,3.0,96,0.00,,,0.08,VWS V14.01,2013-03-18 01:00:00,
2013-03-17 20:03:00,44.4,43.1,29.72,ENE,63,1.5,4.0,95,0.00,,,0.08,VWS V14.01,2013-03-18 01:03:00,
2013-03-17 20:08:00,44.3,43.2,29.72,ENE,78,1.5,4.0,96,0.00,,,0.08,VWS V14.01,2013-03-18 01:08:00,
2013-03-17 20:13:00,44.3,43.2,29.71,NE,37,1.5,4.0,96,0.00,,,0.08,VWS V14.01,2013-03-18 01:13:00,
2013-03-17 20:18:00,44.3,43.2,29.71,ENE,75,1.5,4.0,96,0.00,,,0.08,VWS V14.01,2013-03-18 01:18:00,
2013-03-17 20:23:00,44.3,43.2,29.72,ENE,60,3.0,4.0,96,0.00,,,0.08,VWS V14.01,2013-03-18 01:23:00,
2013-03-17 20:28:00,44.2,43.1,29.72,NE,44,3.0,4.0,96,0.00,,,0.08,VWS V14.01,2013-03-18 01:28:00,
2013-03-17 20:33:00,44.2,43.1,29.72,East,84,0.0,4.0,96,0.00,,,0.08,VWS V14.01,2013-03-18 01:33:00,
2013-03-17 20:38:00,44.2,43.1,29.72,ENE,68,0.0,4.0,96,0.00,,,0.08,VWS V14.01,2013-03-18 01:38:00,
2013-03-17 20:43:00,44.3,43.2,29.72,East,86,0.0,4.0,96,0.00,,,0.08,VWS V14.01,2013-03-18 01:43:00,
2013-03-17 20:48:00,44.3,43.2,29.72,East,84,3.0,4.0,96,0.01,,,0.09,VWS V14.01,2013-03-18 01:48:00,
2013-03-17 20:53:00,44.3,43.2,29.72,ENE,77,1.5,4.0,96,0.01,,,0.09,VWS V14.01,2013-03-18 01:53:00,
2013-03-17 20:58:00,44.3,43.2,29.72,ENE,77,0.0,4.0,96,0.01,,,0.09,VWS V14.01,2013-03-18 01:58:00,
2013-03-17 21:00:00,44.5,43.4,29.72,NNE,22,3.0,3.0,96,0.00,,,0.08,VWS V15.00,2013-03-18 02:00:00,
2013-03-17 21:03:00,44.4,43.3,29.72,ENE,77,0.0,4.0,96,0.01,,,0.09,VWS V14.01,2013-03-18 02:03:00,
2013-03-17 21:08:00,44.4,43.3,29.72,ENE,77,0.0,4.0,96,0.01,,,0.09,VWS V14.01,2013-03-18 02:08:00,
2013-03-17 21:13:00,44.5,43.4,29.72,ENE,76,1.5,4.0,96,0.01,,,0.09,VWS V14.01,2013-03-18 02:13:00,
2013-03-17 21:18:00,44.6,43.5,29.72,East,83,1.5,4.0,96,0.01,,,0.09,VWS V14.01,2013-03-18 02:18:00,
2013-03-17 21:23:00,44.6,43.5,29.72,East,83,0.0,4.0,96,0.01,,,0.09,VWS V14.01,2013-03-18 02:23:00,
2013-03-17 21:28:00,44.7,43.6,29.72,East,83,0.0,4.0,96,0.01,,,0.09,VWS V14.01,2013-03-18 02:28:00,
2013-03-17 21:33:00,44.8,43.7,29.73,East,84,0.0,4.0,96,0.01,,,0.09,VWS V14.01,2013-03-18 02:33:00,
2013-03-17 21:38:00,44.8,43.7,29.73,East,84,0.0,4.0,96,0.01,,,0.09,VWS V14.01,2013-03-18 02:38:00,
2013-03-17 21:43:00,44.9,43.8,29.73,East,84,1.5,4.0,96,0.01,,,0.09,VWS V14.01,2013-03-18 02:43:00,
2013-03-17 21:48:00,45.0,44.2,29.73,SE,128,0.0,4.0,97,0.01,,,0.09,VWS V14.01,2013-03-18 02:48:00,
2013-03-17 21:53:00,45.1,44.3,29.73,ENE,61,0.0,4.0,97,0.01,,,0.09,VWS V14.01,2013-03-18 02:53:00,
2013-03-17 21:58:00,45.2,44.4,29.73,ENE,61,0.0,4.0,97,0.01,,,0.09,VWS V14.01,2013-03-18 02:58:00,
2013-03-17 22:00:00,45.2,44.4,29.73,ENE,61,0.0,4.0,97,0.01,,,0.09,VWS V14.01,2013-03-18 03:00:00,
2013-03-17 22:03:00,45.2,44.4,29.73,ENE,61,0.0,0.0,97,0.00,,,0.09,VWS V14.01,2013-03-18 03:03:00,
2013-03-17 22:08:00,45.2,44.4,29.74,ENE,61,0.0,0.0,97,0.00,,,0.09,VWS V14.01,2013-03-18 03:08:00,
2013-03-17 22:13:00,45.2,44.4,29.74,ENE,65,0.0,1.0,97,0.00,,,0.09,VWS V14.01,2013-03-18 03:13:00,
2013-03-17 22:18:00,45.2,44.4,29.74,ENE,65,0.0,1.0,97,0.00,,,0.09,VWS V14.01,2013-03-18 03:18:00,
2013-03-17 22:23:00,45.2,44.4,29.74,ENE,65,0.0,1.0,97,0.00,,,0.09,VWS V14.01,2013-03-18 03:23:00,
2013-03-17 22:28:00,45.2,44.1,29.74,ENE,65,0.0,1.0,96,0.00,,,0.09,VWS V14.01,2013-03-18 03:28:00,
2013-03-17 22:33:00,45.2,44.4,29.74,ENE,65,0.0,1.0,97,0.01,,,0.10,VWS V14.01,2013-03-18 03:33:00,
2013-03-17 22:38:00,45.2,44.4,29.74,ENE,65,0.0,1.0,97,0.01,,,0.10,VWS V14.01,2013-03-18 03:38:00,
2013-03-17 22:43:00,45.2,44.4,29.74,ENE,65,0.0,1.0,97,0.01,,,0.10,VWS V14.01,2013-03-18 03:43:00,
2013-03-17 22:48:00,45.2,44.4,29.74,ENE,65,0.0,1.0,97,0.01,,,0.10,VWS V14.01,2013-03-18 03:48:00,
2013-03-17 22:53:00,45.3,44.5,29.75,ENE,65,0.0,1.0,97,0.01,,,0.10,VWS V14.01,2013-03-18 03:53:00,
2013-03-17 22:58:00,45.4,44.6,29.75,ENE,65,0.0,1.0,97,0.01,,,0.10,VWS V14.01,2013-03-18 03:58:00,
2013-03-17 23:00:00,45.4,44.6,29.75,NNW,333,1.5,1.5,97,0.01,,,0.10,VWS V14.01,2013-03-18 04:00:00,
2013-03-17 23:05:00,45.4,44.6,29.75,NW,304,1.5,2.0,97,0.01,,,0.10,VWS V14.01,2013-03-18 04:05:00,
2013-03-17 23:10:00,45.4,44.6,29.74,NNE,13,3.0,3.0,97,0.01,,,0.10,VWS V14.01,2013-03-18 04:10:00,
2013-03-17 23:15:00,45.1,44.0,29.74,WNW,293,3.0,3.0,96,0.01,,,0.10,VWS V14.01,2013-03-18 04:15:00,
2013-03-17 23:20:00,45.0,43.9,29.74,WNW,293,0.0,2.0,96,0.01,,,0.10,VWS V14.01,2013-03-18 04:20:00,
2013-03-17 23:25:00,45.0,43.9,29.74,WNW,293,0.0,2.0,96,0.01,,,0.10,VWS V14.01,2013-03-18 04:25:00,
2013-03-17 23:30:00,45.1,44.3,29.75,WNW,293,0.0,2.0,97,0.01,,,0.10,VWS V14.01,2013-03-18 04:30:00,
2013-03-17 23:35:00,45.2,44.4,29.74,WNW,293,0.0,2.0,97,0.01,,,0.10,VWS V14.01,2013-03-18 04:35:00,
2013-03-17 23:40:00,45.4,44.6,29.74,SW,217,1.5,2.0,97,0.01,,,0.10,VWS V14.01,2013-03-18 04:40:00,
2013-03-17 23:45:00,46.0,45.2,29.74,SW,215,1.5,2.0,97,0.01,,,0.10,VWS V14.01,2013-03-18 04:45:00,
2013-03-17 23:50:00,46.2,45.4,29.74,SW,232,0.0,3.0,97,0.01,,,0.10,VWS V14.01,2013-03-18 04:50:00,
2013-03-17 23:55:00,46.2,45.4,29.75,SW,226,0.0,3.0,97,0.01,,,0.10,VWS V14.01,2013-03-18 04:55:00,